Have a Safe July 4th! 

Flight Track Log - Related Links

Times and Time Zones

All times are in EDT time to prevent confusion due to time zone crossing. See the QLK380 flight status page for this flight to view local times or setup timezone preferences in your user account.

Time Position Orientation Groundspeed Altitude Reporting Facility
EDT Latitude Longitude Course Direction KTS MPH feet Rate Location/Type
Thu 02:59:45 AM -27.3742 153.1348 North 128 147 600  Level Aus ATC (RADAR)
Thu 03:00:45 AM -27.3330 153.1366 North 153 176 2,100 1,378 Climbing Aus ATC (RADAR)
Thu 03:02:00 AM -27.2741 153.1348 358° North 178 205 3,700 1,344 Climbing Aus ATC (RADAR)
Thu 03:02:50 AM -27.2292 153.1324 357° North 193 222 4,900 1,440 Climbing Aus ATC (RADAR)
Thu 03:03:40 AM -27.1853 153.1284 355° North 191 220 6,100 1,500 Climbing Aus ATC (RADAR)
Thu 03:04:10 AM -27.1575 153.1266 357° North 198 228 6,900 1,477 Climbing Aus ATC (RADAR)
Thu 03:04:45 AM -27.1245 153.1238 356° North 203 234 7,700 1,341 Climbing Aus ATC (RADAR)
Thu 03:05:35 AM -27.0768 153.1208 357° North 205 236 8,800 1,263 Climbing Aus ATC (RADAR)
Thu 03:06:39 AM -27.0142 153.1173 357° North 207 238 10,100 1,137 Climbing Aus ATC (RADAR)
Thu 03:07:10 AM -26.9844 153.1151 356° North 213 245 10,600 1,011 Climbing Aus ATC (RADAR)
Thu 03:08:14 AM -26.9180 153.1105 357° North 221 254 11,700 1,038 Climbing Aus ATC (RADAR)
Thu 03:08:54 AM -26.8771 153.1076 356° North 221 254 12,400 1,040 Climbing Aus ATC (RADAR)
Thu 03:09:29 AM -26.8408 153.1064 358° North 221 254 13,000 847 Climbing Aus ATC (RADAR)
Thu 03:10:19 AM -26.7884 153.1030 357° North 228 262 13,600 560 Climbing Aus ATC (RADAR)
Thu 03:11:59 AM -26.6785 153.0951 356° North 248 285 14,400 300 Climbing Aus ATC (RADAR)
Thu 03:12:59 AM -26.6030 153.0912 357° North 274 315 14,400  Level Aus ATC (RADAR)
Thu 03:13:34 AM -26.5574 153.0860 354° North 282 325 14,400  Level Aus ATC (RADAR)
Thu 03:14:14 AM -26.5045 153.0769 351° North 289 333 14,400  Level Aus ATC (RADAR)
Thu 03:14:59 AM -26.4452 153.0651 350° North 289 333 14,400  Level Aus ATC (RADAR)
Thu 03:15:59 AM -26.3650 153.0518 352° North 291 335 14,400  Level Aus ATC (RADAR)
Thu 03:17:04 AM -26.2781 153.0380 352° North 292 336 14,400  Level Aus ATC (RADAR)
Thu 03:18:04 AM -26.1978 153.0244 351° North 292 336 14,400  Level Aus ATC (RADAR)
Thu 03:18:44 AM -26.1441 153.0164 352° North 292 336 14,400  Level Aus ATC (RADAR)
Thu 03:19:19 AM -26.0975 153.0079 351° North 291 335 14,400  Level Aus ATC (RADAR)
Thu 03:20:03 AM -26.0375 152.9977 351° North 290 334 14,400 -385 Level Aus ATC (RADAR)
Thu 03:21:08 AM -25.9502 152.9837 352° North 294 338 13,700 -983 Descending Aus ATC (RADAR)
Thu 03:21:59 AM -25.8811 152.9733 352° North 298 343 12,500 -1,568 Descending Aus ATC (RADAR)
Thu 03:22:59 AM -25.8010 152.9613 352° North 292 336 10,800 -1,673 Descending Aus ATC (RADAR)
Thu 03:23:43 AM -25.7421 152.9504 351° North 286 329 9,600 -1,571 Descending Aus ATC (RADAR)
Thu 03:24:23 AM -25.6914 152.9432 353° North 277 319 8,600 -1,482 Descending Aus ATC (RADAR)
Thu 03:25:08 AM -25.6354 152.9337 351° North 272 313 7,500 -1,429 Descending Aus ATC (RADAR)
Thu 03:26:08 AM -25.5626 152.9212 351° North 264 304 6,100 -1,364 Descending Aus ATC (RADAR)
Thu 03:26:58 AM -25.5053 152.9114 351° North 250 288 5,000 -1,320 Descending Aus ATC (RADAR)
Thu 03:28:00 AM -25.4393 152.9003 351° North  Level FlightAware Approximate
Thu 03:35:00 AM -25.3188 152.8803 352° North  Level FlightAware Approximate

Login

Don't have an account? Register now (free) for customized features, flight alerts, and more!